Time;durP1;ratioP1;P1;durP2;ratioP2;P2;SDS_P1;SDS_P2;PMS_P1;PMS_P2;Temp;Humidity;BMP_temperature;BMP_pressure;BME280_temperature;BME280_humidity;BME280_pressure;Samples;Min_cycle;Max_cycle;Signal;HPM_P1;HPM_P2
2023/03/26 00:00:42;;;;;;;14.23;5.00;;;;;;;;;;5015866;28;20458;-68
2023/03/26 00:03:10;;;;;;;15.63;4.50;;;;;;;;;;5015179;28;20289;-67
2023/03/26 00:05:37;;;;;;;11.03;4.33;;;;;;;;;;5015615;28;20458;-67
2023/03/26 00:08:07;;;;;;;11.13;3.92;;;;;;;;;;5015075;28;20467;-67
2023/03/26 00:10:35;;;;;;;15.02;4.65;;;;;;;;;;5015706;28;20561;-67
2023/03/26 00:13:03;;;;;;;14.55;3.58;;;;;;;;;;5015839;28;20220;-67
2023/03/26 00:15:31;;;;;;;13.70;4.50;;;;;;;;;;5015884;28;20207;-67
2023/03/26 00:17:59;;;;;;;12.18;4.00;;;;;;;;;;5015517;28;20192;-67
2023/03/26 00:20:27;;;;;;;8.53;4.07;;;;;;;;;;5015230;28;20218;-67
2023/03/26 00:22:54;;;;;;;10.80;4.90;;;;;;;;;;5015589;28;20475;-67
2023/03/26 00:25:22;;;;;;;14.25;4.97;;;;;;;;;;5015449;28;20448;-67
2023/03/26 00:27:49;;;;;;;7.75;4.13;;;;;;;;;;5015289;28;20263;-67
2023/03/26 00:30:18;;;;;;;16.85;5.30;;;;;;;;;;5015360;28;20218;-67
2023/03/26 00:32:45;;;;;;;11.57;4.43;;;;;;;;;;5015244;28;20200;-68
2023/03/26 00:35:13;;;;;;;13.80;4.37;;;;;;;;;;5015032;28;20236;-68
2023/03/26 00:37:42;;;;;;;9.47;4.40;;;;;;;;;;5015107;28;20814;-68
2023/03/26 00:40:09;;;;;;;12.68;4.93;;;;;;;;;;5015167;28;20822;-67
2023/03/26 00:42:37;;;;;;;14.57;5.07;;;;;;;;;;5015390;28;20224;-67
2023/03/26 00:45:04;;;;;;;13.63;4.70;;;;;;;;;;5014726;28;20542;-67
2023/03/26 00:47:33;;;;;;;8.03;4.40;;;;;;;;;;5015151;28;20450;-66
2023/03/26 00:50:00;;;;;;;14.40;5.20;;;;;;;;;;5014546;28;20975;-67
2023/03/26 00:52:28;;;;;;;7.10;4.87;;;;;;;;;;5014855;28;20457;-68
2023/03/26 00:54:55;;;;;;;14.23;4.20;;;;;;;;;;5014897;28;20535;-67
2023/03/26 00:57:29;;;;;;;12.02;5.50;;;;;;;;;;5014480;28;20201;-67
2023/03/26 00:59:56;;;;;;;10.80;4.30;;;;;;;;;;5014497;28;20215;-67
2023/03/26 01:02:23;;;;;;;9.63;5.83;;;;;;;;;;5013762;28;20334;-67
2023/03/26 01:04:55;;;;;;;9.35;5.30;;;;;;;;;;5014858;28;20800;-67
2023/03/26 01:07:27;;;;;;;9.32;4.32;;;;;;;;;;5012653;28;20287;-68
2023/03/26 01:09:56;;;;;;;9.82;5.55;;;;;;;;;;5009654;28;20266;-67
2023/03/26 01:12:25;;;;;;;12.23;5.15;;;;;;;;;;5014562;28;20200;-67
2023/03/26 01:14:53;;;;;;;13.75;5.35;;;;;;;;;;5014406;28;20192;-68
2023/03/26 01:17:21;;;;;;;9.23;4.38;;;;;;;;;;5014467;28;20208;-67
2023/03/26 01:19:51;;;;;;;6.67;4.20;;;;;;;;;;5014490;28;20204;-67
2023/03/26 01:22:21;;;;;;;10.80;5.20;;;;;;;;;;5014296;28;20479;-67
2023/03/26 01:24:54;;;;;;;12.95;5.43;;;;;;;;;;5014281;28;20443;-67
2023/03/26 01:27:28;;;;;;;10.38;4.25;;;;;;;;;;5014997;28;20600;-67
2023/03/26 01:29:56;;;;;;;6.78;4.97;;;;;;;;;;5013925;28;20195;-67
2023/03/26 01:32:29;;;;;;;7.55;4.70;;;;;;;;;;5013936;28;20200;-67
2023/03/26 01:35:01;;;;;;;17.13;4.88;;;;;;;;;;5014280;28;20228;-68
2023/03/26 01:37:31;;;;;;;7.85;4.68;;;;;;;;;;5014049;28;20630;-67
2023/03/26 01:40:05;;;;;;;9.83;4.53;;;;;;;;;;5014147;28;20192;-68
2023/03/26 01:42:37;;;;;;;6.73;3.90;;;;;;;;;;5014367;28;20475;-67
2023/03/26 01:45:08;;;;;;;8.10;4.63;;;;;;;;;;5013646;28;20431;-68
2023/03/26 01:47:35;;;;;;;11.02;4.40;;;;;;;;;;5014701;28;20781;-68
2023/03/26 01:50:02;;;;;;;7.82;4.38;;;;;;;;;;5014126;28;20198;-68
2023/03/26 01:52:30;;;;;;;5.82;4.03;;;;;;;;;;5014079;28;20196;-69
2023/03/26 01:54:58;;;;;;;7.15;4.65;;;;;;;;;;5013910;28;20193;-68
2023/03/26 01:57:34;;;;;;;11.90;4.30;;;;;;;;;;5013933;28;20203;-67
2023/03/26 02:00:10;;;;;;;14.02;4.55;;;;;;;;;;5013900;28;20481;-68
2023/03/26 02:02:42;;;;;;;7.37;4.47;;;;;;;;;;5013035;28;20247;-68
2023/03/26 02:05:12;;;;;;;17.05;5.90;;;;;;;;;;5013509;28;20457;-68
2023/03/26 02:07:43;;;;;;;10.80;4.72;;;;;;;;;;5012815;28;20236;-69
2023/03/26 02:10:14;;;;;;;11.20;4.77;;;;;;;;;;5013602;28;20208;-68
2023/03/26 02:12:43;;;;;;;10.53;4.03;;;;;;;;;;5013850;28;20782;-68
2023/03/26 02:15:14;;;;;;;8.57;4.40;;;;;;;;;;5013616;28;20444;-68
2023/03/26 02:17:41;;;;;;;10.73;3.92;;;;;;;;;;5013740;28;20529;-68
2023/03/26 02:20:09;;;;;;;12.45;4.45;;;;;;;;;;5013589;28;20196;-68
2023/03/26 02:22:39;;;;;;;17.30;4.90;;;;;;;;;;5013645;28;20221;-68
2023/03/26 02:25:08;;;;;;;9.32;4.72;;;;;;;;;;5013575;28;20467;-68
2023/03/26 02:27:35;;;;;;;9.53;4.00;;;;;;;;;;5013811;28;20192;-68
2023/03/26 02:30:04;;;;;;;18.33;5.40;;;;;;;;;;5013521;28;20450;-68
2023/03/26 02:32:31;;;;;;;17.73;6.72;;;;;;;;;;5013742;28;20215;-68
2023/03/26 02:34:58;;;;;;;12.27;5.07;;;;;;;;;;5012910;28;20228;-68
2023/03/26 02:37:26;;;;;;;16.15;5.47;;;;;;;;;;5013565;28;20479;-68
2023/03/26 02:39:53;;;;;;;14.70;4.53;;;;;;;;;;5013549;28;20196;-68
2023/03/26 02:42:20;;;;;;;16.23;5.43;;;;;;;;;;5013396;28;20228;-68
2023/03/26 02:44:47;;;;;;;20.27;7.28;;;;;;;;;;5013363;28;20444;-68
2023/03/26 02:47:16;;;;;;;19.25;6.50;;;;;;;;;;5013417;28;20196;-68
2023/03/26 02:49:43;;;;;;;13.33;5.70;;;;;;;;;;5013462;28;20633;-68
2023/03/26 02:52:10;;;;;;;20.77;6.82;;;;;;;;;;5013360;28;20439;-68
2023/03/26 02:54:38;;;;;;;16.20;6.60;;;;;;;;;;5013321;28;20196;-68
2023/03/26 02:57:05;;;;;;;21.83;7.03;;;;;;;;;;5013380;28;20196;-68
2023/03/26 02:59:32;;;;;;;13.53;7.17;;;;;;;;;;5013318;28;20450;-68
2023/03/26 03:01:59;;;;;;;21.42;7.45;;;;;;;;;;5004309;28;20542;-68
2023/03/26 03:04:28;;;;;;;20.98;8.13;;;;;;;;;;4993455;28;20229;-67
2023/03/26 03:06:56;;;;;;;28.58;10.82;;;;;;;;;;4993592;28;20200;-68
2023/03/26 03:09:23;;;;;;;23.10;7.63;;;;;;;;;;4996894;28;20205;-67
2023/03/26 03:11:51;;;;;;;28.87;8.03;;;;;;;;;;4993531;28;20456;-68
2023/03/26 03:14:19;;;;;;;22.03;7.57;;;;;;;;;;4993771;28;20506;-67
2023/03/26 03:16:46;;;;;;;22.37;8.50;;;;;;;;;;4993112;28;20973;-68
2023/03/26 03:19:13;;;;;;;27.07;8.60;;;;;;;;;;4993489;28;20436;-67
2023/03/26 03:21:42;;;;;;;23.63;8.17;;;;;;;;;;4994395;28;20448;-68
2023/03/26 03:24:10;;;;;;;21.20;8.63;;;;;;;;;;4996971;28;20487;-68
2023/03/26 03:26:37;;;;;;;36.08;8.77;;;;;;;;;;4996933;28;20527;-67
2023/03/26 03:29:05;;;;;;;21.87;9.97;;;;;;;;;;4996813;28;20193;-67
2023/03/26 03:31:32;;;;;;;17.83;7.33;;;;;;;;;;4996622;28;20972;-69
2023/03/26 03:33:59;;;;;;;20.98;7.43;;;;;;;;;;4996819;28;20783;-70
2023/03/26 03:36:29;;;;;;;21.83;7.35;;;;;;;;;;4996307;28;20690;-68
2023/03/26 03:39:01;;;;;;;28.60;7.18;;;;;;;;;;4996840;28;20251;-68
2023/03/26 03:41:28;;;;;;;27.37;8.03;;;;;;;;;;4996763;28;20201;-68
2023/03/26 03:43:57;;;;;;;22.80;7.93;;;;;;;;;;4996556;28;20483;-69
2023/03/26 03:46:24;;;;;;;24.10;8.30;;;;;;;;;;4999032;28;20196;-69
2023/03/26 03:48:52;;;;;;;25.45;8.52;;;;;;;;;;5015749;28;20676;-69
2023/03/26 03:51:19;;;;;;;21.67;8.50;;;;;;;;;;5015451;28;20220;-69
2023/03/26 03:53:48;;;;;;;21.60;8.82;;;;;;;;;;5015568;28;20991;-68
2023/03/26 03:56:17;;;;;;;23.63;7.53;;;;;;;;;;5015380;28;20208;-69
2023/03/26 03:58:46;;;;;;;31.90;7.83;;;;;;;;;;5015726;28;20200;-68
2023/03/26 04:01:14;;;;;;;27.13;8.10;;;;;;;;;;5015271;28;20955;-68
2023/03/26 04:03:44;;;;;;;25.90;7.37;;;;;;;;;;5015289;28;20883;-69
2023/03/26 04:06:12;;;;;;;18.87;6.97;;;;;;;;;;5015077;28;20458;-68
2023/03/26 04:08:39;;;;;;;30.15;8.27;;;;;;;;;;5015128;28;20447;-69
2023/03/26 04:11:06;;;;;;;24.20;6.85;;;;;;;;;;5015325;28;20541;-69
2023/03/26 04:13:35;;;;;;;23.17;7.07;;;;;;;;;;5014964;28;20238;-68
2023/03/26 04:16:02;;;;;;;27.00;6.77;;;;;;;;;;5014409;28;20448;-68
2023/03/26 04:18:31;;;;;;;29.73;7.75;;;;;;;;;;5015474;28;20509;-68
2023/03/26 04:21:01;;;;;;;23.75;9.25;;;;;;;;;;5014925;28;20561;-68
2023/03/26 04:23:29;;;;;;;22.90;7.50;;;;;;;;;;5015071;28;20270;-68
2023/03/26 04:25:57;;;;;;;23.30;7.90;;;;;;;;;;5014875;28;20446;-69
2023/03/26 04:28:29;;;;;;;24.33;7.87;;;;;;;;;;5014754;28;20466;-68
2023/03/26 04:31:00;;;;;;;30.08;8.90;;;;;;;;;;5014949;28;20511;-68
2023/03/26 04:33:27;;;;;;;31.63;8.68;;;;;;;;;;5015140;28;20652;-68
2023/03/26 04:36:00;;;;;;;24.50;8.20;;;;;;;;;;5015197;28;20228;-69
2023/03/26 04:38:27;;;;;;;27.60;7.97;;;;;;;;;;5014929;28;20438;-68
2023/03/26 04:40:58;;;;;;;22.35;7.88;;;;;;;;;;5001915;28;20208;-69
2023/03/26 04:43:26;;;;;;;23.95;7.97;;;;;;;;;;4994830;28;20211;-69
2023/03/26 04:45:53;;;;;;;27.70;7.57;;;;;;;;;;4997253;28;20220;-69
2023/03/26 04:48:22;;;;;;;27.80;9.37;;;;;;;;;;5014377;28;20200;-68
2023/03/26 04:50:50;;;;;;;23.07;7.77;;;;;;;;;;5014620;28;20443;-68
2023/03/26 04:53:18;;;;;;;20.35;7.90;;;;;;;;;;5014808;28;20447;-68
2023/03/26 04:55:47;;;;;;;29.77;7.63;;;;;;;;;;5014812;28;20196;-69
2023/03/26 04:58:15;;;;;;;25.73;6.30;;;;;;;;;;5014714;28;20206;-69
2023/03/26 05:00:42;;;;;;;35.67;9.32;;;;;;;;;;5015106;28;20235;-69
2023/03/26 05:03:10;;;;;;;26.13;7.90;;;;;;;;;;5014638;28;20260;-69
2023/03/26 05:05:39;;;;;;;26.25;6.90;;;;;;;;;;5013904;28;20455;-69
2023/03/26 05:08:06;;;;;;;28.00;8.73;;;;;;;;;;5014153;28;20215;-68
2023/03/26 05:10:34;;;;;;;25.83;7.93;;;;;;;;;;5014241;28;20672;-69
2023/03/26 05:13:01;;;;;;;39.03;8.60;;;;;;;;;;5014173;28;20444;-68
2023/03/26 05:15:28;;;;;;;34.50;9.00;;;;;;;;;;5014242;28;20447;-68
2023/03/26 05:17:55;;;;;;;30.93;8.73;;;;;;;;;;5013908;28;20684;-68
2023/03/26 05:20:25;;;;;;;37.58;9.20;;;;;;;;;;5014554;28;20804;-68
2023/03/26 05:22:53;;;;;;;31.17;7.80;;;;;;;;;;5014291;28;20196;-68
2023/03/26 05:25:21;;;;;;;32.87;8.87;;;;;;;;;;5014272;28;20798;-68
2023/03/26 05:27:48;;;;;;;22.58;8.10;;;;;;;;;;5013627;28;20444;-69
2023/03/26 05:30:16;;;;;;;31.65;8.57;;;;;;;;;;5014282;28;20192;-68
2023/03/26 05:32:43;;;;;;;24.37;7.97;;;;;;;;;;5013790;28;20202;-68
2023/03/26 05:35:11;;;;;;;34.25;9.43;;;;;;;;;;5014102;28;20475;-68
2023/03/26 05:37:38;;;;;;;28.08;9.93;;;;;;;;;;5014431;28;20519;-69
2023/03/26 05:40:12;;;;;;;25.48;8.15;;;;;;;;;;5014099;28;20192;-68
2023/03/26 05:42:40;;;;;;;32.80;10.80;;;;;;;;;;5013868;28;20280;-68
2023/03/26 05:45:08;;;;;;;30.50;10.85;;;;;;;;;;5012725;28;20224;-68
2023/03/26 05:47:35;;;;;;;36.85;11.30;;;;;;;;;;5013326;28;20283;-69
2023/03/26 05:50:03;;;;;;;31.25;9.55;;;;;;;;;;5013963;28;20201;-68
2023/03/26 05:52:30;;;;;;;29.23;10.20;;;;;;;;;;5014137;28;20200;-68
2023/03/26 05:54:57;;;;;;;51.20;10.03;;;;;;;;;;5014033;28;20200;-68
2023/03/26 05:57:27;;;;;;;45.50;9.90;;;;;;;;;;5013434;28;20451;-68
2023/03/26 05:59:55;;;;;;;31.83;10.77;;;;;;;;;;5013901;28;20459;-68
2023/03/26 06:02:22;;;;;;;29.92;10.38;;;;;;;;;;5013275;28;20200;-68
2023/03/26 06:04:49;;;;;;;35.63;11.75;;;;;;;;;;5013521;28;20224;-68
2023/03/26 06:07:17;;;;;;;29.15;9.90;;;;;;;;;;5013048;28;20193;-68
2023/03/26 06:09:44;;;;;;;32.90;9.93;;;;;;;;;;5013474;28;20284;-68
2023/03/26 06:12:12;;;;;;;32.00;10.52;;;;;;;;;;5013216;28;20878;-68
2023/03/26 06:14:41;;;;;;;31.02;9.90;;;;;;;;;;5014156;28;20201;-72
2023/03/26 06:17:09;;;;;;;30.65;11.43;;;;;;;;;;5013370;28;20199;-70
2023/03/26 06:19:36;;;;;;;33.60;10.40;;;;;;;;;;5013183;28;20258;-71
2023/03/26 06:22:04;;;;;;;29.25;8.70;;;;;;;;;;5013552;28;20279;-70
2023/03/26 06:24:31;;;;;;;41.13;10.17;;;;;;;;;;5013119;28;20212;-70
2023/03/26 06:26:58;;;;;;;40.80;10.55;;;;;;;;;;5012772;28;20446;-71
2023/03/26 06:29:25;;;;;;;28.57;9.40;;;;;;;;;;5013194;28;20196;-70
2023/03/26 06:31:54;;;;;;;27.33;9.70;;;;;;;;;;5013466;28;20451;-70
2023/03/26 06:34:21;;;;;;;27.50;10.23;;;;;;;;;;5012819;28;20501;-70
2023/03/26 06:36:51;;;;;;;26.70;8.97;;;;;;;;;;5013203;28;20424;-70
2023/03/26 06:39:19;;;;;;;33.53;10.40;;;;;;;;;;5012925;28;21002;-70
2023/03/26 06:41:46;;;;;;;38.87;10.43;;;;;;;;;;5013363;28;20802;-69
2023/03/26 06:44:13;;;;;;;31.70;10.37;;;;;;;;;;5012862;28;20487;-68
2023/03/26 06:46:41;;;;;;;29.47;9.80;;;;;;;;;;5013481;28;20465;-69
2023/03/26 06:49:09;;;;;;;40.22;10.88;;;;;;;;;;5013316;28;20439;-69
2023/03/26 06:51:38;;;;;;;25.90;9.47;;;;;;;;;;5013418;28;20207;-69
2023/03/26 06:54:05;;;;;;;24.43;8.70;;;;;;;;;;5012948;28;20456;-69
2023/03/26 06:56:32;;;;;;;37.00;10.70;;;;;;;;;;5016250;28;20474;-69
2023/03/26 06:58:59;;;;;;;31.05;11.48;;;;;;;;;;5016896;28;20721;-69
2023/03/26 07:01:27;;;;;;;36.55;9.55;;;;;;;;;;5017229;28;20200;-69
2023/03/26 07:03:54;;;;;;;34.70;10.57;;;;;;;;;;5016767;28;20222;-69
2023/03/26 07:06:22;;;;;;;29.57;10.03;;;;;;;;;;5016940;28;20493;-69
2023/03/26 07:08:49;;;;;;;43.10;10.67;;;;;;;;;;5017015;28;20442;-70
2023/03/26 07:11:19;;;;;;;19.77;9.57;;;;;;;;;;5016962;28;20936;-69
2023/03/26 07:13:46;;;;;;;24.70;11.50;;;;;;;;;;5016969;28;20199;-69
2023/03/26 07:16:14;;;;;;;34.40;9.27;;;;;;;;;;5017176;28;20462;-69
2023/03/26 07:18:41;;;;;;;24.43;10.17;;;;;;;;;;5016285;28;20304;-69
2023/03/26 07:21:09;;;;;;;27.70;9.23;;;;;;;;;;5016510;28;20867;-69
2023/03/26 07:23:38;;;;;;;33.07;10.70;;;;;;;;;;5016626;28;20446;-69
2023/03/26 07:26:12;;;;;;;21.37;9.40;;;;;;;;;;5016918;28;20525;-69
2023/03/26 07:28:41;;;;;;;21.30;9.63;;;;;;;;;;5016887;28;20470;-69
2023/03/26 07:31:16;;;;;;;27.20;10.63;;;;;;;;;;5016163;28;20958;-69
2023/03/26 07:33:46;;;;;;;30.13;9.10;;;;;;;;;;5015981;28;20506;-69
2023/03/26 07:36:18;;;;;;;34.70;9.30;;;;;;;;;;5016477;28;20476;-70
2023/03/26 07:38:51;;;;;;;23.27;9.93;;;;;;;;;;5016142;28;20421;-69
2023/03/26 07:41:23;;;;;;;32.50;9.60;;;;;;;;;;5016545;28;20436;-69
2023/03/26 07:44:15;;;;;;;31.43;10.07;;;;;;;;;;5016334;28;20439;-69
2023/03/26 07:46:42;;;;;;;30.17;9.80;;;;;;;;;;5016871;28;20742;-69
2023/03/26 07:49:12;;;;;;;30.13;9.43;;;;;;;;;;5015791;28;20439;-69
2023/03/26 07:51:39;;;;;;;27.77;9.57;;;;;;;;;;5016147;28;20522;-69
2023/03/26 07:54:09;;;;;;;44.87;10.73;;;;;;;;;;5015977;28;20466;-69
2023/03/26 07:56:38;;;;;;;28.10;9.00;;;;;;;;;;5016283;28;20457;-69
2023/03/26 07:59:20;;;;;;;20.70;9.03;;;;;;;;;;5015964;28;20449;-69
2023/03/26 08:01:55;;;;;;;23.20;9.17;;;;;;;;;;5016206;28;20411;-69
2023/03/26 08:04:34;;;;;;;32.53;10.30;;;;;;;;;;5016326;28;20943;-69
2023/03/26 08:07:03;;;;;;;22.43;8.07;;;;;;;;;;5015008;28;20430;-70
2023/03/26 08:09:35;;;;;;;24.60;10.13;;;;;;;;;;5015931;28;20554;-69
2023/03/26 08:12:06;;;;;;;25.40;8.87;;;;;;;;;;5015524;28;20429;-70
2023/03/26 08:14:39;;;;;;;24.30;8.97;;;;;;;;;;5015440;28;20438;-69
2023/03/26 08:17:10;;;;;;;26.50;8.67;;;;;;;;;;5015395;28;20913;-69
2023/03/26 08:19:44;;;;;;;28.67;10.30;;;;;;;;;;5015650;28;20437;-69
2023/03/26 08:22:12;;;;;;;24.30;8.50;;;;;;;;;;5012572;28;20945;-69
2023/03/26 08:24:45;;;;;;;21.70;8.40;;;;;;;;;;5014253;28;20483;-70
2023/03/26 08:27:17;;;;;;;22.60;9.60;;;;;;;;;;5015000;28;20779;-70
2023/03/26 08:29:50;;;;;;;19.37;10.20;;;;;;;;;;5015291;28;20428;-70
2023/03/26 08:32:18;;;;;;;23.07;8.90;;;;;;;;;;5014912;28;20433;-69
2023/03/26 08:34:46;;;;;;;21.60;8.60;;;;;;;;;;5014373;28;20977;-69
2023/03/26 08:37:13;;;;;;;35.17;10.00;;;;;;;;;;5014713;28;20441;-70
2023/03/26 08:39:42;;;;;;;25.07;9.77;;;;;;;;;;5014438;28;20620;-69
2023/03/26 08:42:20;;;;;;;27.87;10.00;;;;;;;;;;5014920;28;20444;-70
2023/03/26 08:44:57;;;;;;;35.27;10.07;;;;;;;;;;5014540;28;20848;-70
2023/03/26 08:47:42;;;;;;;23.07;9.50;;;;;;;;;;5015468;28;20546;-69
2023/03/26 08:50:21;;;;;;;27.67;9.47;;;;;;;;;;5014721;28;20533;-69
2023/03/26 08:53:14;;;;;;;34.13;9.73;;;;;;;;;;4995302;28;20437;-69
2023/03/26 08:55:47;;;;;;;25.30;8.40;;;;;;;;;;4995330;28;20457;-69
2023/03/26 08:58:29;;;;;;;18.13;8.80;;;;;;;;;;4995173;28;20824;-69
2023/03/26 09:01:06;;;;;;;21.23;8.10;;;;;;;;;;4994493;28;20429;-69
2023/03/26 09:03:40;;;;;;;22.57;9.10;;;;;;;;;;4994551;28;20797;-69
2023/03/26 09:06:34;;;;;;;23.13;8.47;;;;;;;;;;4995223;28;20574;-69
2023/03/26 09:09:11;;;;;;;24.10;9.03;;;;;;;;;;4994908;28;20786;-69
2023/03/26 09:11:59;;;;;;;27.40;9.53;;;;;;;;;;4994664;28;20432;-69
2023/03/26 09:14:45;;;;;;;32.93;9.17;;;;;;;;;;4995137;28;20448;-69
2023/03/26 09:17:22;;;;;;;27.90;8.87;;;;;;;;;;4994579;28;20932;-69
2023/03/26 09:20:10;;;;;;;167.10;76.10;;;;;;;;;;4993658;28;20503;-69
2023/03/26 09:22:52;;;;;;;24.73;8.77;;;;;;;;;;4969300;28;20448;-70
2023/03/26 09:25:38;;;;;;;27.93;9.20;;;;;;;;;;4994131;28;20476;-69
2023/03/26 09:28:20;;;;;;;25.33;7.70;;;;;;;;;;4994616;28;20543;-69
2023/03/26 09:30:57;;;;;;;23.17;6.97;;;;;;;;;;4994212;28;20469;-69
2023/03/26 09:33:47;;;;;;;20.63;5.10;;;;;;;;;;4994900;28;20934;-69
2023/03/26 09:36:21;;;;;;;22.43;5.87;;;;;;;;;;4994044;28;20567;-69
2023/03/26 09:39:01;;;;;;;18.73;5.87;;;;;;;;;;4994150;28;20450;-69
2023/03/26 09:41:36;;;;;;;17.17;8.00;;;;;;;;;;4994687;28;20437;-70
2023/03/26 09:44:18;;;;;;;22.33;6.90;;;;;;;;;;4994731;28;20452;-69
2023/03/26 09:46:53;;;;;;;20.80;6.90;;;;;;;;;;4994184;28;20430;-68
2023/03/26 09:49:35;;;;;;;15.43;5.50;;;;;;;;;;4994721;28;20764;-69
2023/03/26 09:52:17;;;;;;;17.13;6.33;;;;;;;;;;4992408;28;20457;-69
2023/03/26 09:54:52;;;;;;;19.00;6.10;;;;;;;;;;4994730;28;20451;-70
2023/03/26 09:57:27;;;;;;;19.20;6.77;;;;;;;;;;5013502;28;20449;-69
2023/03/26 10:00:04;;;;;;;27.90;8.50;;;;;;;;;;5013041;28;20427;-69
2023/03/26 10:02:41;;;;;;;22.90;7.10;;;;;;;;;;5013450;28;20437;-69
2023/03/26 10:05:27;;;;;;;23.57;7.23;;;;;;;;;;5014175;28;20492;-69
2023/03/26 10:08:13;;;;;;;25.20;8.70;;;;;;;;;;5014137;28;20548;-68
2023/03/26 10:10:51;;;;;;;20.00;8.03;;;;;;;;;;5013686;28;20482;-69
2023/03/26 10:13:24;;;;;;;27.03;8.30;;;;;;;;;;5013978;28;20547;-69
2023/03/26 10:15:57;;;;;;;17.47;8.00;;;;;;;;;;5013845;28;20471;-69
2023/03/26 10:18:30;;;;;;;21.40;9.43;;;;;;;;;;5013016;28;20908;-70
2023/03/26 10:21:02;;;;;;;22.87;9.07;;;;;;;;;;5013060;28;20448;-68
2023/03/26 10:23:55;;;;;;;26.97;9.57;;;;;;;;;;5013749;28;20432;-68
2023/03/26 10:26:32;;;;;;;20.70;9.37;;;;;;;;;;4982665;28;20494;-68
2023/03/26 10:29:04;;;;;;;31.67;9.27;;;;;;;;;;4993481;28;20439;-68
2023/03/26 10:31:37;;;;;;;27.60;10.50;;;;;;;;;;4997062;28;20467;-68
2023/03/26 10:34:11;;;;;;;20.60;8.90;;;;;;;;;;4998147;28;20442;-68
2023/03/26 10:36:42;;;;;;;20.20;8.90;;;;;;;;;;4997283;28;20439;-69
2023/03/26 10:39:24;;;;;;;18.40;10.70;;;;;;;;;;4997206;28;20444;-69
2023/03/26 10:41:56;;;;;;;21.97;11.37;;;;;;;;;;4997144;28;20963;-68
2023/03/26 10:44:42;;;;;;;23.73;10.20;;;;;;;;;;4997782;28;20443;-69
2023/03/26 10:47:24;;;;;;;16.93;9.90;;;;;;;;;;4998203;28;20515;-68
2023/03/26 10:49:57;;;;;;;20.47;9.37;;;;;;;;;;4997857;28;20428;-68
2023/03/26 10:52:25;;;;;;;24.80;10.53;;;;;;;;;;4997467;28;20435;-68
2023/03/26 10:54:56;;;;;;;21.83;8.37;;;;;;;;;;4996847;28;20441;-71
2023/03/26 10:57:30;;;;;;;17.00;7.70;;;;;;;;;;4997422;28;20488;-71
2023/03/26 10:59:58;;;;;;;26.63;8.07;;;;;;;;;;4997138;28;20881;-69
2023/03/26 11:02:28;;;;;;;25.97;7.73;;;;;;;;;;4996633;28;20958;-71
2023/03/26 11:05:01;;;;;;;16.60;6.57;;;;;;;;;;4997108;28;20453;-70
2023/03/26 11:07:31;;;;;;;17.93;7.53;;;;;;;;;;4997300;28;20834;-68
2023/03/26 11:10:01;;;;;;;14.00;6.03;;;;;;;;;;4997237;28;20468;-70
2023/03/26 11:12:32;;;;;;;11.53;5.87;;;;;;;;;;4997612;28;20538;-70
2023/03/26 11:15:17;;;;;;;13.87;6.03;;;;;;;;;;4997206;28;20986;-70
2023/03/26 11:17:48;;;;;;;26.80;7.87;;;;;;;;;;4996943;28;20430;-69
2023/03/26 11:20:19;;;;;;;14.93;5.93;;;;;;;;;;4996057;28;20929;-69
2023/03/26 11:22:59;;;;;;;14.33;5.37;;;;;;;;;;5006582;28;20890;-70
2023/03/26 11:25:31;;;;;;;13.70;5.10;;;;;;;;;;5022650;28;20472;-69
2023/03/26 11:28:08;;;;;;;15.37;6.70;;;;;;;;;;5026239;28;20437;-70
2023/03/26 11:30:40;;;;;;;14.23;6.17;;;;;;;;;;5024081;28;20519;-70
2023/03/26 11:33:10;;;;;;;12.30;6.53;;;;;;;;;;5018768;28;20436;-68
2023/03/26 11:35:41;;;;;;;11.33;6.50;;;;;;;;;;5016171;28;20541;-69
2023/03/26 11:38:14;;;;;;;16.33;6.87;;;;;;;;;;5015675;28;20433;-75
2023/03/26 11:40:45;;;;;;;15.13;6.77;;;;;;;;;;5015809;28;20509;-70
2023/03/26 11:43:15;;;;;;;16.80;6.43;;;;;;;;;;5015205;28;20785;-70
2023/03/26 11:45:45;;;;;;;12.60;6.80;;;;;;;;;;5016500;28;21068;-69
2023/03/26 11:48:15;;;;;;;20.60;8.80;;;;;;;;;;5015828;28;20444;-70
2023/03/26 11:50:46;;;;;;;20.10;9.33;;;;;;;;;;5016126;28;20432;-70
2023/03/26 11:53:15;;;;;;;20.10;8.30;;;;;;;;;;5016293;28;20506;-70
2023/03/26 11:55:45;;;;;;;15.63;8.90;;;;;;;;;;5015846;28;20498;-70
2023/03/26 11:58:21;;;;;;;17.33;7.83;;;;;;;;;;5015804;28;20434;-71
2023/03/26 12:00:49;;;;;;;17.60;9.83;;;;;;;;;;5015131;28;20912;-69
2023/03/26 12:03:16;;;;;;;18.87;9.53;;;;;;;;;;5015753;28;20450;-68
2023/03/26 12:05:49;;;;;;;21.97;8.77;;;;;;;;;;5016582;28;20479;-69
2023/03/26 12:08:21;;;;;;;19.17;10.00;;;;;;;;;;5015584;28;20459;-69
2023/03/26 12:10:52;;;;;;;22.00;9.70;;;;;;;;;;5015818;28;20944;-69
2023/03/26 12:13:28;;;;;;;21.00;11.70;;;;;;;;;;5016002;28;20527;-69
2023/03/26 12:15:58;;;;;;;20.27;10.90;;;;;;;;;;5015935;28;20822;-68
2023/03/26 12:18:27;;;;;;;22.33;9.87;;;;;;;;;;5015358;28;20444;-70
2023/03/26 12:21:04;;;;;;;21.33;8.77;;;;;;;;;;5015526;28;20487;-69
2023/03/26 12:23:36;;;;;;;20.37;9.87;;;;;;;;;;5015870;28;20427;-69
2023/03/26 12:26:13;;;;;;;24.07;9.20;;;;;;;;;;5015909;28;20981;-70
2023/03/26 12:28:44;;;;;;;19.77;7.90;;;;;;;;;;5015816;28;20487;-69
2023/03/26 12:31:17;;;;;;;12.70;5.10;;;;;;;;;;5015251;28;20918;-69
2023/03/26 12:33:45;;;;;;;12.47;4.80;;;;;;;;;;5015679;28;20432;-69
2023/03/26 12:36:25;;;;;;;11.83;4.40;;;;;;;;;;5014912;28;20518;-69
2023/03/26 12:38:52;;;;;;;11.60;6.17;;;;;;;;;;5015301;28;20440;-69
2023/03/26 12:41:20;;;;;;;6.70;3.83;;;;;;;;;;5015561;28;20444;-69
2023/03/26 12:43:49;;;;;;;5.53;3.37;;;;;;;;;;5014847;28;20448;-69
2023/03/26 12:46:24;;;;;;;8.80;4.10;;;;;;;;;;5015205;28;20486;-69
2023/03/26 12:48:52;;;;;;;5.60;3.10;;;;;;;;;;5015111;28;20451;-70
2023/03/26 12:51:25;;;;;;;7.43;3.40;;;;;;;;;;5015618;28;20440;-69
2023/03/26 12:54:00;;;;;;;11.83;4.93;;;;;;;;;;5014564;28;20905;-69
2023/03/26 12:56:35;;;;;;;7.60;4.17;;;;;;;;;;5015363;28;20478;-70
2023/03/26 12:59:10;;;;;;;7.17;4.17;;;;;;;;;;5015154;28;20487;-70
2023/03/26 13:01:42;;;;;;;9.57;4.70;;;;;;;;;;5014936;28;20549;-70
2023/03/26 13:04:25;;;;;;;6.10;4.37;;;;;;;;;;5014606;28;20542;-70
2023/03/26 13:06:56;;;;;;;5.10;2.93;;;;;;;;;;5014516;28;20503;-70
2023/03/26 13:09:35;;;;;;;13.00;4.97;;;;;;;;;;5014432;28;20515;-70
2023/03/26 13:12:08;;;;;;;20.07;12.20;;;;;;;;;;5014753;28;20520;-70
2023/03/26 13:14:45;;;;;;;12.23;7.33;;;;;;;;;;5014889;28;20436;-70
2023/03/26 13:17:16;;;;;;;9.50;6.17;;;;;;;;;;5012854;28;20448;-70
2023/03/26 13:19:48;;;;;;;17.40;9.27;;;;;;;;;;5014189;28;20439;-70
2023/03/26 13:22:19;;;;;;;16.37;10.50;;;;;;;;;;5013909;28;20433;-70
2023/03/26 13:24:52;;;;;;;14.73;7.77;;;;;;;;;;5013874;28;20423;-70
2023/03/26 13:27:29;;;;;;;8.00;5.00;;;;;;;;;;5013408;28;20878;-71
2023/03/26 13:30:00;;;;;;;6.93;5.03;;;;;;;;;;5013965;28;20748;-70
2023/03/26 13:32:32;;;;;;;11.18;6.25;;;;;;;;;;5014572;28;20449;-70
2023/03/26 13:35:13;;;;;;;14.20;7.20;;;;;;;;;;5013602;28;20220;-71
2023/03/26 13:37:46;;;;;;;8.97;5.43;;;;;;;;;;5014302;28;20828;-70
2023/03/26 13:40:21;;;;;;;8.90;4.80;;;;;;;;;;5014036;28;20440;-70
2023/03/26 13:42:50;;;;;;;6.00;3.97;;;;;;;;;;5014235;28;20434;-71
2023/03/26 13:45:25;;;;;;;3.03;2.70;;;;;;;;;;5013891;28;20446;-71
2023/03/26 13:47:54;;;;;;;2.87;2.57;;;;;;;;;;5013507;28;20466;-71
2023/03/26 13:50:24;;;;;;;3.00;2.70;;;;;;;;;;5013679;28;20833;-70
2023/03/26 13:52:56;;;;;;;3.73;3.23;;;;;;;;;;5014337;28;20816;-70
2023/03/26 13:55:24;;;;;;;6.10;4.23;;;;;;;;;;5014074;28;20842;-71
2023/03/26 13:57:54;;;;;;;2.90;2.63;;;;;;;;;;5013533;28;20455;-70
2023/03/26 14:00:25;;;;;;;2.93;2.50;;;;;;;;;;5013619;28;20563;-71
2023/03/26 14:02:57;;;;;;;4.40;3.57;;;;;;;;;;5014228;28;20428;-71
2023/03/26 14:05:26;;;;;;;3.83;3.40;;;;;;;;;;5013016;28;20889;-71
2023/03/26 14:07:57;;;;;;;4.50;3.93;;;;;;;;;;5013304;28;20480;-71
2023/03/26 14:10:25;;;;;;;5.97;3.90;;;;;;;;;;5013537;28;20778;-71
2023/03/26 14:12:56;;;;;;;5.10;3.70;;;;;;;;;;5013731;28;20440;-71
2023/03/26 14:15:26;;;;;;;6.50;5.30;;;;;;;;;;5013664;28;20432;-71
2023/03/26 14:17:56;;;;;;;6.03;5.13;;;;;;;;;;5013668;28;20525;-70
2023/03/26 14:20:43;;;;;;;9.85;6.10;;;;;;;;;;5013191;28;20955;-71
2023/03/26 14:23:25;;;;;;;9.53;6.70;;;;;;;;;;5013776;28;20189;-71
2023/03/26 14:26:02;;;;;;;6.57;5.57;;;;;;;;;;5011126;28;20994;-70
2023/03/26 14:28:42;;;;;;;12.40;7.40;;;;;;;;;;5012856;28;20437;-71
2023/03/26 14:31:18;;;;;;;14.23;8.00;;;;;;;;;;5013450;28;20188;-70
2023/03/26 14:33:53;;;;;;;11.02;6.63;;;;;;;;;;5013609;28;20188;-71
2023/03/26 14:36:29;;;;;;;11.27;7.07;;;;;;;;;;5013482;28;20265;-71
2023/03/26 14:39:14;;;;;;;9.98;6.50;;;;;;;;;;5013637;28;20184;-71
2023/03/26 14:41:47;;;;;;;12.75;7.68;;;;;;;;;;5013012;28;20201;-71
2023/03/26 14:44:28;;;;;;;12.85;7.20;;;;;;;;;;5013341;28;20192;-71
2023/03/26 14:47:07;;;;;;;13.35;6.70;;;;;;;;;;5013076;28;20212;-71
2023/03/26 14:49:46;;;;;;;17.95;8.30;;;;;;;;;;5012994;28;20188;-70
2023/03/26 14:52:17;;;;;;;13.93;8.07;;;;;;;;;;5013485;28;20591;-71
2023/03/26 14:54:46;;;;;;;18.33;9.13;;;;;;;;;;5013264;28;20196;-71